createdAt,value
2024-02-19T00:02:46.012Z,99865.19
2024-02-19T00:06:03.191Z,99881.41
2024-02-19T00:09:21.689Z,99877.64
2024-02-19T00:12:39.588Z,99863.95
2024-02-19T00:15:57.524Z,99852.23
2024-02-19T00:19:15.753Z,99861.00
2024-02-19T00:22:33.101Z,99862.72
2024-02-19T00:25:52.174Z,99859.61
2024-02-19T00:29:09.934Z,99855.19
2024-02-19T00:32:27.863Z,99841.16
2024-02-19T00:35:45.684Z,99847.11
2024-02-19T00:39:03.727Z,99833.29
2024-02-19T00:42:21.423Z,99839.73
2024-02-19T00:45:39.204Z,99840.95
2024-02-19T00:48:56.502Z,99836.50
2024-02-19T00:52:14.320Z,99836.34
2024-02-19T00:55:32.985Z,99837.77
2024-02-19T00:58:50.851Z,99802.77
2024-02-19T01:02:08.082Z,99814.76
2024-02-19T01:05:27.247Z,99813.98
2024-02-19T01:08:45.028Z,99815.14
2024-02-19T01:12:02.767Z,99804.13
2024-02-19T01:15:21.136Z,99813.10
2024-02-19T01:18:38.792Z,99781.41
2024-02-19T01:21:56.613Z,99787.69
2024-02-19T01:25:15.748Z,99790.14
2024-02-19T01:28:33.472Z,99785.97
2024-02-19T01:31:52.781Z,99781.88
2024-02-19T01:35:10.516Z,99774.00
2024-02-19T01:38:28.338Z,99768.19
2024-02-19T01:41:45.776Z,99755.28
2024-02-19T01:45:03.079Z,99758.95
2024-02-19T01:48:20.977Z,99746.27
2024-02-19T01:51:39.850Z,99738.69
2024-02-19T01:54:58.028Z,99710.52
2024-02-19T01:58:16.728Z,99733.88
2024-02-19T02:01:37.330Z,99733.15
2024-02-19T02:04:54.872Z,99719.38
2024-02-19T02:08:13.338Z,99735.94
2024-02-19T02:11:31.094Z,99723.12
2024-02-19T02:14:48.979Z,99717.88
2024-02-19T02:18:06.483Z,99711.38
2024-02-19T02:21:24.292Z,99705.16
2024-02-19T02:24:41.479Z,99717.08
2024-02-19T02:27:59.596Z,99705.03
2024-02-19T02:31:17.489Z,99703.48
2024-02-19T02:34:36.615Z,99705.65
2024-02-19T02:37:54.101Z,99694.95
2024-02-19T02:41:11.955Z,99682.64
2024-02-19T02:44:29.768Z,99675.84
2024-02-19T02:47:47.229Z,99681.58
2024-02-19T02:51:04.507Z,99693.00
2024-02-19T02:54:21.948Z,99661.38
2024-02-19T02:57:39.693Z,99662.61
2024-02-19T03:00:57.582Z,99641.30
2024-02-19T03:04:15.825Z,99643.70
2024-02-19T03:07:33.632Z,99640.44
2024-02-19T03:10:51.587Z,99621.48
2024-02-19T03:14:11.898Z,99611.18
2024-02-19T03:17:30.862Z,99628.38
2024-02-19T03:20:48.735Z,99618.45
2024-02-19T03:24:06.673Z,99604.34
2024-02-19T03:27:24.697Z,99597.91
2024-02-19T03:30:42.496Z,99603.57
2024-02-19T03:34:00.371Z,99599.41
2024-02-19T03:37:18.589Z,99579.04
2024-02-19T03:40:36.567Z,99598.38
2024-02-19T03:43:54.282Z,99583.97
2024-02-19T03:47:13.259Z,99595.23
2024-02-19T03:50:30.909Z,99586.30
2024-02-19T03:53:48.333Z,99584.52
2024-02-19T03:57:06.784Z,99573.19
2024-02-19T04:00:26.036Z,99580.36
2024-02-19T04:03:43.270Z,99578.64
2024-02-19T04:07:01.789Z,99558.44
2024-02-19T04:10:20.626Z,99563.48
2024-02-19T04:13:38.401Z,99555.91
2024-02-19T04:16:55.968Z,99542.88
2024-02-19T04:20:16.032Z,99536.30
2024-02-19T04:23:33.479Z,99545.10
2024-02-19T04:26:50.930Z,99532.22
2024-02-19T04:30:08.815Z,99518.11
2024-02-19T04:33:26.987Z,99509.11
2024-02-19T04:36:44.513Z,99512.59
2024-02-19T04:40:02.288Z,99499.90
2024-02-19T04:43:20.309Z,99516.85
2024-02-19T04:46:39.168Z,99518.25
2024-02-19T04:49:57.347Z,99511.15
2024-02-19T04:53:17.071Z,99515.13
2024-02-19T04:56:34.605Z,99497.41
2024-02-19T04:59:52.315Z,99489.16
2024-02-19T05:03:10.124Z,99475.43
2024-02-19T05:06:30.139Z,99489.16
2024-02-19T05:09:48.180Z,99468.52
2024-02-19T05:13:05.929Z,99464.09
2024-02-19T05:16:23.659Z,99475.04
2024-02-19T05:19:41.491Z,99460.39
2024-02-19T05:22:59.270Z,99453.12
2024-02-19T05:26:17.134Z,99457.05
2024-02-19T05:29:34.689Z,99461.59
2024-02-19T05:32:52.413Z,99463.39
2024-02-19T05:36:11.513Z,99453.23
2024-02-19T05:39:29.195Z,99447.13
2024-02-19T05:42:48.212Z,99449.66
2024-02-19T05:46:05.886Z,99450.08
2024-02-19T05:49:24.099Z,99456.62
2024-02-19T05:52:41.929Z,99450.75
2024-02-19T05:55:59.764Z,99447.31
2024-02-19T05:59:17.714Z,99424.52
2024-02-19T06:02:35.470Z,99421.31
2024-02-19T06:05:55.368Z,99435.54
2024-02-19T06:09:13.029Z,99433.00
2024-02-19T06:12:30.501Z,99418.77
2024-02-19T06:15:48.344Z,99413.94
2024-02-19T06:19:06.108Z,99416.14
2024-02-19T06:22:23.847Z,99409.03
2024-02-19T06:25:41.674Z,99390.30
2024-02-19T06:28:59.517Z,99411.47
2024-02-19T06:32:18.192Z,99405.71
2024-02-19T06:35:35.706Z,99419.41
2024-02-19T06:38:53.400Z,99418.84
2024-02-19T06:42:12.346Z,99395.68
2024-02-19T06:45:29.951Z,99405.02
2024-02-19T06:48:50.699Z,99417.03
2024-02-19T06:52:07.859Z,99415.33
2024-02-19T06:55:26.715Z,99414.31
2024-02-19T06:58:44.509Z,99410.67
2024-02-19T07:02:06.835Z,99413.81
2024-02-19T07:05:22.205Z,99381.38
2024-02-19T07:08:40.053Z,99402.60
2024-02-19T07:11:57.694Z,99407.70
2024-02-19T07:15:17.223Z,99405.77
2024-02-19T07:18:34.890Z,99401.17
2024-02-19T07:21:52.625Z,99381.77
2024-02-19T07:25:17.341Z,99396.41
2024-02-19T07:28:30.242Z,99386.66
2024-02-19T07:31:47.991Z,99380.56
2024-02-19T07:35:05.917Z,99385.16
2024-02-19T07:38:23.519Z,99359.34
2024-02-19T07:41:41.076Z,99380.97
2024-02-19T07:44:58.665Z,99376.05
2024-02-19T07:48:18.820Z,99367.23
2024-02-19T07:51:36.710Z,99362.83
2024-02-19T07:54:54.191Z,99359.42
2024-02-19T07:58:12.229Z,99356.98
2024-02-19T08:01:30.168Z,99360.45
2024-02-19T08:04:48.122Z,99350.45
2024-02-19T08:08:05.854Z,99322.66
2024-02-19T08:11:25.383Z,99329.42
2024-02-19T08:14:42.840Z,99324.70
2024-02-19T08:18:00.498Z,99337.50
2024-02-19T08:21:18.725Z,99308.11
2024-02-19T08:24:36.412Z,99335.11
2024-02-19T08:27:55.592Z,99333.03
2024-02-19T08:31:13.702Z,99325.88
2024-02-19T08:34:31.728Z,99308.37
2024-02-19T08:37:49.717Z,99297.43
2024-02-19T08:41:07.543Z,99304.33
2024-02-19T08:44:25.946Z,99317.21
2024-02-19T08:47:44.143Z,99309.44
2024-02-19T08:51:03.131Z,99299.09
2024-02-19T08:54:20.924Z,99280.45
2024-02-19T08:57:38.540Z,99299.97
2024-02-19T09:00:56.390Z,99288.27
2024-02-19T09:04:14.128Z,99284.06
2024-02-19T09:07:31.732Z,99298.51
2024-02-19T09:10:49.397Z,99273.61
2024-02-19T09:14:07.510Z,99274.86
2024-02-19T09:17:25.221Z,99291.64
2024-02-19T09:20:42.525Z,99278.34
2024-02-19T09:24:00.237Z,99278.65
2024-02-19T09:27:18.006Z,99286.32
2024-02-19T09:30:35.835Z,99269.25
2024-02-19T09:33:55.441Z,99276.80
2024-02-19T09:37:13.610Z,99280.67
2024-02-19T09:40:32.134Z,99275.92
2024-02-19T09:43:50.395Z,99267.03
2024-02-19T09:47:10.331Z,99246.77
2024-02-19T09:50:28.098Z,99258.23
2024-02-19T09:53:46.265Z,99269.36
2024-02-19T09:57:04.257Z,99250.76
2024-02-19T10:00:25.609Z,99242.39
2024-02-19T10:03:43.245Z,99249.53
2024-02-19T10:07:04.582Z,99245.84
2024-02-19T10:10:23.731Z,99229.41
2024-02-19T10:13:43.455Z,99243.62
2024-02-19T10:17:02.313Z,99234.97
2024-02-19T10:20:22.268Z,99231.99
2024-02-19T10:23:40.028Z,99221.45
2024-02-19T10:26:58.218Z,99225.80
2024-02-19T10:30:20.988Z,99224.47
2024-02-19T10:33:39.424Z,99224.95
2024-02-19T10:36:57.126Z,99218.45
2024-02-19T10:40:21.589Z,99219.05
2024-02-19T10:43:39.346Z,99211.02
2024-02-19T10:46:57.510Z,99184.57
2024-02-19T10:50:20.415Z,99200.69
2024-02-19T10:53:40.040Z,99187.95
2024-02-19T10:56:57.817Z,99191.19
2024-02-19T11:00:22.397Z,99171.06
2024-02-19T11:03:51.426Z,99157.81
2024-02-19T11:07:10.196Z,99162.05
2024-02-19T11:10:28.183Z,99155.31
2024-02-19T11:13:48.983Z,99144.48
2024-02-19T11:17:06.686Z,99140.36
2024-02-19T11:20:31.826Z,99141.77
2024-02-19T11:23:48.909Z,99138.33
2024-02-19T11:27:09.115Z,99133.99
2024-02-19T11:30:26.548Z,99121.29
2024-02-19T11:33:43.724Z,99112.08
2024-02-19T11:37:02.706Z,99108.33
2024-02-19T11:40:22.084Z,99093.98
2024-02-19T11:43:40.088Z,99091.64
2024-02-19T11:46:58.616Z,99085.63
2024-02-19T11:50:20.978Z,99078.44
2024-02-19T11:53:38.256Z,99080.84
2024-02-19T11:56:59.608Z,99077.94
2024-02-19T12:00:20.398Z,99068.29
2024-02-19T12:03:39.640Z,99085.80
2024-02-19T12:06:56.904Z,99075.91
2024-02-19T12:10:17.988Z,99077.59
2024-02-19T12:13:38.124Z,99070.58
2024-02-19T12:16:57.200Z,99069.98
2024-02-19T12:20:17.147Z,99068.92
2024-02-19T12:23:34.403Z,99068.52
2024-02-19T12:26:51.569Z,99060.08
2024-02-19T12:30:09.209Z,99061.38
2024-02-19T12:33:26.779Z,99059.48
2024-02-19T12:36:44.086Z,99064.20
2024-02-19T12:40:01.474Z,99063.71
2024-02-19T12:43:19.198Z,99066.09
2024-02-19T12:46:36.675Z,99057.18
2024-02-19T12:49:55.196Z,99054.39
2024-02-19T12:53:13.257Z,99060.67
2024-02-19T12:56:30.893Z,99049.95
2024-02-19T12:59:48.575Z,99052.94
2024-02-19T13:03:06.039Z,99051.80
2024-02-19T13:06:23.471Z,99047.13
2024-02-19T13:09:41.782Z,99051.04
2024-02-19T13:12:59.434Z,99048.38
2024-02-19T13:16:18.100Z,99054.15
2024-02-19T13:19:35.878Z,99042.51
2024-02-19T13:22:53.319Z,99022.70
2024-02-19T13:26:12.416Z,99035.83
2024-02-19T13:29:29.626Z,99033.83
2024-02-19T13:32:48.279Z,99049.42
2024-02-19T13:36:05.808Z,99042.20
2024-02-19T13:39:23.225Z,99049.19
2024-02-19T13:42:40.315Z,99050.69
2024-02-19T13:46:09.003Z,99049.00
2024-02-19T13:49:28.391Z,99052.41
2024-02-19T13:52:45.891Z,99068.24
2024-02-19T13:56:03.925Z,99058.22
2024-02-19T13:59:21.035Z,99069.34
2024-02-19T14:02:38.200Z,99065.93
2024-02-19T14:05:56.087Z,99079.30
2024-02-19T14:09:13.648Z,99075.78
2024-02-19T14:12:30.849Z,99078.02
2024-02-19T14:15:48.247Z,99078.34
2024-02-19T14:19:05.731Z,99087.28
2024-02-19T14:22:24.078Z,99095.00
2024-02-19T14:25:42.116Z,99096.53
2024-02-19T14:28:59.884Z,99098.03
2024-02-19T14:32:18.232Z,99106.58
2024-02-19T14:35:35.750Z,99115.02
2024-02-19T14:38:53.628Z,99120.73
2024-02-19T14:42:11.949Z,99141.13
2024-02-19T14:45:29.394Z,99158.34
2024-02-19T14:48:47.629Z,99165.13
2024-02-19T14:52:05.227Z,99174.47
2024-02-19T14:55:22.716Z,99173.16
2024-02-19T14:58:40.244Z,99178.17
2024-02-19T15:01:57.697Z,99183.09
2024-02-19T15:05:17.601Z,99195.69
2024-02-19T15:08:37.807Z,99193.00
2024-02-19T15:11:55.423Z,99191.30
2024-02-19T15:15:17.038Z,99196.13
2024-02-19T15:18:34.649Z,99191.11
2024-02-19T15:21:52.229Z,99197.75
2024-02-19T15:25:10.569Z,99201.05
2024-02-19T15:28:27.850Z,99204.94
2024-02-19T15:31:47.249Z,99201.49
2024-02-19T15:35:05.238Z,99204.42
2024-02-19T15:38:23.987Z,99207.37
2024-02-19T15:41:41.606Z,99214.61
2024-02-19T15:44:58.995Z,99217.15
2024-02-19T15:48:18.071Z,99219.76
2024-02-19T15:51:35.782Z,99222.27
2024-02-19T15:54:54.052Z,99231.31
2024-02-19T15:58:11.759Z,99232.03
2024-02-19T16:01:29.530Z,99231.31
2024-02-19T16:04:46.872Z,99232.68
2024-02-19T16:08:04.826Z,99246.78
2024-02-19T16:11:22.202Z,99246.48
2024-02-19T16:14:40.853Z,99255.55
2024-02-19T16:17:58.110Z,99256.27
2024-02-19T16:21:15.878Z,99264.88
2024-02-19T16:24:35.624Z,99268.37
2024-02-19T16:27:53.132Z,99271.77
2024-02-19T16:31:11.803Z,99271.97
2024-02-19T16:34:29.529Z,99278.13
2024-02-19T16:37:47.228Z,99277.03
2024-02-19T16:41:04.430Z,99277.75
2024-02-19T16:44:22.412Z,99278.50
2024-02-19T16:47:39.899Z,99288.49
2024-02-19T16:50:59.027Z,99280.54
2024-02-19T16:54:18.394Z,99293.52
2024-02-19T16:57:35.583Z,99293.59
2024-02-19T17:00:55.673Z,99296.74
2024-02-19T17:04:13.550Z,99297.05
2024-02-19T17:07:32.028Z,99292.88
2024-02-19T17:10:50.129Z,99295.22
2024-02-19T17:14:07.738Z,99295.36
2024-02-19T17:17:25.115Z,99283.05
2024-02-19T17:20:42.451Z,99289.55
2024-02-19T17:23:59.687Z,99285.13
2024-02-19T17:27:17.313Z,99287.27
2024-02-19T17:30:34.538Z,99278.73
2024-02-19T17:33:52.169Z,99275.37
2024-02-19T17:37:09.685Z,99284.95
2024-02-19T17:40:28.157Z,99277.42
2024-02-19T17:43:46.676Z,99285.85
2024-02-19T17:47:04.894Z,99279.88
2024-02-19T17:50:22.589Z,99286.05
2024-02-19T17:53:39.849Z,99284.16
2024-02-19T17:56:57.278Z,99288.83
2024-02-19T18:00:17.643Z,99280.49
2024-02-19T18:03:35.207Z,99284.54
2024-02-19T18:06:52.391Z,99286.61
2024-02-19T18:10:10.253Z,99292.70
2024-02-19T18:13:27.454Z,99287.98
2024-02-19T18:16:46.602Z,99288.25
2024-02-19T18:20:03.941Z,99291.68
2024-02-19T18:23:21.412Z,99289.68
2024-02-19T18:26:39.570Z,99298.02
2024-02-19T18:29:58.967Z,99308.98
2024-02-19T18:33:18.071Z,99301.83
2024-02-19T18:36:35.328Z,99307.36
2024-02-19T18:39:52.453Z,99302.55
2024-02-19T18:43:10.270Z,99302.73
2024-02-19T18:46:27.623Z,99305.70
2024-02-19T18:49:47.264Z,99306.92
2024-02-19T18:53:04.890Z,99308.34
2024-02-19T18:56:22.030Z,99322.18
2024-02-19T18:59:41.652Z,99309.91
2024-02-19T19:03:00.456Z,99318.01
2024-02-19T19:06:19.943Z,99315.53
2024-02-19T19:09:38.957Z,99325.46
2024-02-19T19:12:56.374Z,99315.45
2024-02-19T19:16:14.946Z,99309.73
2024-02-19T19:19:32.281Z,99312.52
2024-02-19T19:22:49.578Z,99318.18
2024-02-19T19:26:07.678Z,99315.09
2024-02-19T19:29:25.870Z,99318.66
2024-02-19T19:32:43.175Z,99311.16
2024-02-19T19:36:01.932Z,99324.83
2024-02-19T19:39:19.495Z,99313.59
2024-02-19T19:42:37.843Z,99324.96
2024-02-19T19:45:57.219Z,99326.40
2024-02-19T19:49:15.904Z,99324.20
2024-02-19T19:52:35.682Z,99334.72
2024-02-19T19:55:53.204Z,99332.73
2024-02-19T19:59:10.990Z,99337.03
2024-02-19T20:02:28.332Z,99332.37
2024-02-19T20:05:46.110Z,99338.87
2024-02-19T20:09:03.473Z,99335.50
2024-02-19T20:12:22.316Z,99343.47
2024-02-19T20:15:40.763Z,99351.55
2024-02-19T20:18:58.015Z,99347.20
2024-02-19T20:22:15.437Z,99355.06
2024-02-19T20:25:32.964Z,99348.69
2024-02-19T20:28:50.668Z,99353.85
2024-02-19T20:32:09.842Z,99357.45
2024-02-19T20:35:27.878Z,99357.98
2024-02-19T20:38:45.418Z,99358.20
2024-02-19T20:42:02.917Z,99354.84
2024-02-19T20:45:22.272Z,99362.06
2024-02-19T20:48:39.525Z,99346.84
2024-02-19T20:51:56.755Z,99358.14
2024-02-19T20:55:15.631Z,99357.31
2024-02-19T20:58:33.217Z,99352.58
2024-02-19T21:01:50.520Z,99359.59
2024-02-19T21:05:08.513Z,99354.27
2024-02-19T21:08:26.299Z,99354.98
2024-02-19T21:11:43.723Z,99359.59
2024-02-19T21:15:00.994Z,99356.52
2024-02-19T21:18:30.617Z,99349.97
2024-02-19T21:21:37.387Z,99353.95
2024-02-19T21:24:54.844Z,99340.80
2024-02-19T21:28:14.235Z,99353.29
2024-02-19T21:31:31.584Z,99359.81
2024-02-19T21:34:49.435Z,99360.81
2024-02-19T21:38:06.931Z,99355.55
2024-02-19T21:41:24.277Z,99364.00
2024-02-19T21:44:41.821Z,99366.29
2024-02-19T21:47:59.138Z,99364.23
2024-02-19T21:51:17.640Z,99366.66
2024-02-19T21:54:34.829Z,99356.77
2024-02-19T21:57:52.736Z,99367.86
2024-02-19T22:01:10.382Z,99384.97
2024-02-19T22:04:27.800Z,99372.08
2024-02-19T22:07:47.155Z,99382.45
2024-02-19T22:11:04.672Z,99372.54
2024-02-19T22:14:22.472Z,99378.82
2024-02-19T22:17:39.708Z,99373.62
2024-02-19T22:20:57.021Z,99374.24
2024-02-19T22:24:15.284Z,99377.48
2024-02-19T22:27:32.552Z,99387.13
2024-02-19T22:30:49.746Z,99380.27
2024-02-19T22:34:07.217Z,99380.63
2024-02-19T22:37:24.549Z,99388.25
2024-02-19T22:40:41.835Z,99386.83
2024-02-19T22:43:59.178Z,99379.75
2024-02-19T22:47:16.703Z,99379.37
2024-02-19T22:50:34.332Z,99378.91
2024-02-19T22:53:51.432Z,99373.70
2024-02-19T22:57:06.531Z,99380.98
2024-02-19T23:00:31.250Z,99383.95
2024-02-19T23:03:48.909Z,99383.73
2024-02-19T23:07:06.222Z,99382.28
2024-02-19T23:10:23.768Z,99380.98
2024-02-19T23:13:41.016Z,99387.41
2024-02-19T23:16:59.967Z,99393.28
2024-02-19T23:20:19.850Z,99397.86
2024-02-19T23:23:36.953Z,99401.33
2024-02-19T23:26:54.022Z,99413.39
2024-02-19T23:30:12.659Z,99403.98
2024-02-19T23:33:30.006Z,99397.02
2024-02-19T23:36:47.609Z,99398.61
2024-02-19T23:40:06.037Z,99400.87
2024-02-19T23:43:24.998Z,99393.02
2024-02-19T23:46:42.378Z,99397.70
2024-02-19T23:49:59.656Z,99391.45
2024-02-19T23:53:17.241Z,99406.53
2024-02-19T23:56:34.507Z,99402.08
2024-02-19T23:59:51.661Z,99401.95
